createdAt,value
2022-09-15T00:01:16.763Z,16.49
2022-09-15T00:03:46.653Z,16.49
2022-09-15T00:06:15.272Z,16.50
2022-09-15T00:08:43.029Z,16.52
2022-09-15T00:11:18.361Z,16.54
2022-09-15T00:13:46.835Z,16.57
2022-09-15T00:16:15.795Z,16.62
2022-09-15T00:18:45.429Z,16.66
2022-09-15T00:21:18.510Z,16.69
2022-09-15T00:23:47.465Z,16.70
2022-09-15T00:26:19.794Z,16.71
2022-09-15T00:28:48.006Z,16.75
2022-09-15T00:31:20.497Z,16.75
2022-09-15T00:33:51.021Z,16.72
2022-09-15T00:36:20.251Z,16.67
2022-09-15T00:38:48.333Z,16.64
2022-09-15T00:41:20.497Z,16.62
2022-09-15T00:43:58.952Z,16.60
2022-09-15T00:46:38.008Z,16.56
2022-09-15T00:49:20.266Z,16.56
2022-09-15T00:52:02.519Z,16.52
2022-09-15T00:54:41.179Z,16.51
2022-09-15T00:57:23.446Z,16.48
2022-09-15T00:59:53.111Z,16.45
2022-09-15T01:02:33.799Z,16.42
2022-09-15T01:05:07.125Z,16.40
2022-09-15T01:07:43.012Z,16.38
2022-09-15T01:10:39.337Z,16.38
2022-09-15T01:13:11.124Z,16.38
2022-09-15T01:16:04.913Z,16.42
2022-09-15T01:18:43.733Z,16.50
2022-09-15T01:21:34.845Z,16.56
2022-09-15T01:24:46.636Z,16.63
2022-09-15T01:27:43.002Z,16.68
2022-09-15T01:30:11.475Z,16.66
2022-09-15T01:33:14.180Z,16.62
2022-09-15T01:36:19.928Z,16.60
2022-09-15T01:39:02.017Z,16.54
2022-09-15T01:42:01.903Z,16.46
2022-09-15T01:44:34.616Z,16.42
2022-09-15T01:47:06.697Z,16.37
2022-09-15T01:50:03.369Z,16.28
2022-09-15T01:52:32.238Z,16.25
2022-09-15T01:55:08.467Z,16.20
2022-09-15T01:57:35.976Z,16.17
2022-09-15T02:00:04.923Z,16.12
2022-09-15T02:02:37.976Z,16.09
2022-09-15T02:05:24.773Z,16.04
2022-09-15T02:08:06.278Z,16.03
2022-09-15T02:10:44.868Z,16.03
2022-09-15T02:13:39.590Z,16.02
2022-09-15T02:16:17.307Z,16.02
2022-09-15T02:19:10.544Z,16.05
2022-09-15T02:21:58.941Z,16.08
2022-09-15T02:24:37.461Z,16.13
2022-09-15T02:27:13.450Z,16.17
2022-09-15T02:29:43.585Z,16.21
2022-09-15T02:32:14.598Z,16.25
2022-09-15T02:34:46.377Z,16.29
2022-09-15T02:37:15.980Z,16.33
2022-09-15T02:39:49.591Z,16.34
2022-09-15T02:42:38.064Z,16.35
2022-09-15T02:45:16.575Z,16.35
2022-09-15T02:47:57.744Z,16.32
2022-09-15T02:50:28.508Z,16.29
2022-09-15T02:52:56.406Z,16.27
2022-09-15T02:55:26.679Z,16.27
2022-09-15T02:57:56.611Z,16.23
2022-09-15T03:00:26.044Z,16.20
2022-09-15T03:02:55.062Z,16.18
2022-09-15T03:05:27.923Z,16.18
2022-09-15T03:07:56.732Z,16.17
2022-09-15T03:10:25.295Z,16.20
2022-09-15T03:12:54.952Z,16.21
2022-09-15T03:15:25.663Z,16.17
2022-09-15T03:17:54.456Z,16.14
2022-09-15T03:20:29.806Z,16.15
2022-09-15T03:22:57.462Z,16.19
2022-09-15T03:25:26.410Z,16.28
2022-09-15T03:27:53.911Z,16.34
2022-09-15T03:30:21.348Z,16.39
2022-09-15T03:32:49.116Z,16.42
2022-09-15T03:35:16.780Z,16.46
2022-09-15T03:37:45.256Z,16.48
2022-09-15T03:40:13.715Z,16.47
2022-09-15T03:42:41.291Z,16.47
2022-09-15T03:45:09.721Z,16.47
2022-09-15T03:47:37.340Z,16.47
2022-09-15T03:50:06.513Z,16.45
2022-09-15T03:52:34.285Z,16.46
2022-09-15T03:55:01.787Z,16.47
2022-09-15T03:57:29.424Z,16.44
2022-09-15T03:59:57.042Z,16.41
2022-09-15T04:02:24.982Z,16.39
2022-09-15T04:04:52.606Z,16.39
2022-09-15T04:07:20.374Z,16.40
2022-09-15T04:09:48.034Z,16.43
2022-09-15T04:12:15.915Z,16.45
2022-09-15T04:14:43.612Z,16.48
2022-09-15T04:17:11.333Z,16.55
2022-09-15T04:19:38.734Z,16.59
2022-09-15T04:22:06.634Z,16.66
2022-09-15T04:24:34.170Z,16.72
2022-09-15T04:27:01.684Z,16.74
2022-09-15T04:29:29.613Z,16.78
2022-09-15T04:31:57.595Z,16.77
2022-09-15T04:34:25.305Z,16.63
2022-09-15T04:36:52.728Z,16.56
2022-09-15T04:39:20.121Z,16.57
2022-09-15T04:41:47.507Z,16.54
2022-09-15T04:44:14.876Z,16.54
2022-09-15T04:46:42.292Z,16.55
2022-09-15T04:49:09.954Z,16.56
2022-09-15T04:51:38.062Z,16.56
2022-09-15T04:54:05.988Z,16.57
2022-09-15T04:56:33.474Z,16.59
2022-09-15T04:59:03.893Z,16.58
2022-09-15T05:01:33.928Z,16.61
2022-09-15T05:04:05.891Z,16.66
2022-09-15T05:06:35.173Z,16.70
2022-09-15T05:09:10.027Z,16.76
2022-09-15T05:11:35.390Z,16.82
2022-09-15T05:14:02.770Z,16.88
2022-09-15T05:16:31.514Z,16.94
2022-09-15T05:19:02.686Z,17.00
2022-09-15T05:21:30.666Z,17.06
2022-09-15T05:23:58.391Z,17.12
2022-09-15T05:26:28.649Z,17.18
2022-09-15T05:28:57.263Z,17.24
2022-09-15T05:31:33.154Z,17.26
2022-09-15T05:34:03.904Z,17.28
2022-09-15T05:36:32.607Z,17.29
2022-09-15T05:39:01.186Z,17.31
2022-09-15T05:41:30.032Z,17.31
2022-09-15T05:43:58.656Z,17.31
2022-09-15T05:46:28.612Z,17.31
2022-09-15T05:48:58.522Z,17.32
2022-09-15T05:51:27.044Z,17.28
2022-09-15T05:53:54.771Z,17.27
2022-09-15T05:56:22.419Z,17.22
2022-09-15T05:58:49.952Z,17.19
2022-09-15T06:01:20.739Z,17.16
2022-09-15T06:03:48.831Z,17.15
2022-09-15T06:06:17.315Z,17.22
2022-09-15T06:08:49.440Z,17.31
2022-09-15T06:11:24.257Z,17.42
2022-09-15T06:13:52.234Z,17.52
2022-09-15T06:16:23.148Z,17.64
2022-09-15T06:18:52.838Z,17.73
2022-09-15T06:21:24.999Z,17.84
2022-09-15T06:23:56.103Z,17.92
2022-09-15T06:26:24.010Z,17.96
2022-09-15T06:28:59.862Z,18.00
2022-09-15T06:31:31.023Z,18.02
2022-09-15T06:33:59.214Z,18.04
2022-09-15T06:36:29.616Z,18.03
2022-09-15T06:38:58.084Z,18.01
2022-09-15T06:41:31.112Z,17.97
2022-09-15T06:43:57.752Z,17.94
2022-09-15T06:46:28.122Z,17.90
2022-09-15T06:48:55.877Z,17.82
2022-09-15T06:51:27.527Z,17.81
2022-09-15T06:53:55.401Z,17.75
2022-09-15T06:56:23.979Z,17.72
2022-09-15T06:58:51.668Z,17.71
2022-09-15T07:01:30.780Z,17.74
2022-09-15T07:04:00.974Z,17.76
2022-09-15T07:06:31.550Z,17.81
2022-09-15T07:09:01.203Z,17.86
2022-09-15T07:11:29.578Z,17.90
2022-09-15T07:13:58.366Z,17.91
2022-09-15T07:16:26.368Z,17.94
2022-09-15T07:18:59.761Z,17.96
2022-09-15T07:21:27.261Z,17.99
2022-09-15T07:23:57.425Z,18.01
2022-09-15T07:26:28.979Z,17.99
2022-09-15T07:29:03.510Z,17.98
2022-09-15T07:31:34.063Z,17.93
2022-09-15T07:34:02.407Z,17.89
2022-09-15T07:36:31.375Z,17.90
2022-09-15T07:38:59.084Z,17.85
2022-09-15T07:41:29.799Z,17.80
2022-09-15T07:43:59.602Z,17.78
2022-09-15T07:46:31.394Z,17.76
2022-09-15T07:49:00.236Z,17.76
2022-09-15T07:51:27.435Z,17.74
2022-09-15T07:53:55.363Z,17.74
2022-09-15T07:56:23.359Z,17.76
2022-09-15T07:58:51.549Z,17.79
2022-09-15T08:01:21.796Z,17.84
2022-09-15T08:03:51.703Z,17.88
2022-09-15T08:06:23.440Z,17.94
2022-09-15T08:08:55.081Z,17.99
2022-09-15T08:11:21.459Z,18.01
2022-09-15T08:13:51.940Z,18.09
2022-09-15T08:16:23.167Z,18.15
2022-09-15T08:18:53.496Z,18.17
2022-09-15T08:21:22.952Z,18.18
2022-09-15T08:23:57.189Z,18.21
2022-09-15T08:26:27.525Z,18.24
2022-09-15T08:28:55.146Z,18.28
2022-09-15T08:31:24.651Z,18.26
2022-09-15T08:33:55.361Z,18.30
2022-09-15T08:36:25.284Z,18.28
2022-09-15T08:38:53.190Z,18.25
2022-09-15T08:41:28.633Z,18.25
2022-09-15T08:44:32.112Z,18.25
2022-09-15T08:47:13.958Z,18.28
2022-09-15T08:50:09.906Z,18.29
2022-09-15T08:52:55.171Z,18.34
2022-09-15T08:55:41.225Z,18.38
2022-09-15T08:58:32.426Z,18.44
2022-09-15T09:01:17.543Z,18.50
2022-09-15T09:03:59.936Z,18.56
2022-09-15T09:06:45.222Z,18.65
2022-09-15T09:09:47.940Z,18.70
2022-09-15T09:12:33.297Z,18.77
2022-09-15T09:15:41.047Z,18.81
2022-09-15T09:18:37.820Z,18.86
2022-09-15T09:21:23.069Z,18.88
2022-09-15T09:24:14.345Z,18.89
2022-09-15T09:26:42.844Z,18.87
2022-09-15T09:29:19.604Z,18.84
2022-09-15T09:31:52.859Z,18.83
2022-09-15T09:34:50.071Z,18.84
2022-09-15T09:37:17.743Z,18.85
2022-09-15T09:39:46.615Z,18.86
2022-09-15T09:42:18.437Z,18.89
2022-09-15T09:44:47.249Z,18.92
2022-09-15T09:47:15.739Z,18.96
2022-09-15T09:49:48.599Z,18.99
2022-09-15T09:52:22.855Z,19.04
2022-09-15T09:54:56.040Z,19.12
2022-09-15T09:57:29.338Z,19.19
2022-09-15T09:59:57.996Z,19.28
2022-09-15T10:02:28.897Z,19.38
2022-09-15T10:05:08.171Z,19.49
2022-09-15T10:07:43.351Z,19.61
2022-09-15T10:10:24.378Z,19.71
2022-09-15T10:12:56.862Z,19.78
2022-09-15T10:15:28.181Z,19.83
2022-09-15T10:17:56.987Z,19.83
2022-09-15T10:20:32.893Z,19.84
2022-09-15T10:23:08.196Z,19.88
2022-09-15T10:25:58.631Z,19.90
2022-09-15T10:28:21.123Z,19.93
2022-09-15T10:31:10.397Z,19.95
2022-09-15T10:33:42.236Z,19.98
2022-09-15T10:36:29.488Z,20.00
2022-09-15T10:39:28.616Z,20.04
2022-09-15T10:42:19.696Z,20.07
2022-09-15T10:45:04.658Z,20.09
2022-09-15T10:47:37.865Z,20.12
2022-09-15T10:50:22.990Z,20.14
2022-09-15T10:53:17.150Z,20.18
2022-09-15T10:55:52.596Z,20.21
2022-09-15T10:58:58.194Z,20.28
2022-09-15T11:01:34.150Z,20.38
2022-09-15T11:04:34.842Z,20.43
2022-09-15T11:07:33.932Z,20.49
2022-09-15T11:10:29.932Z,20.61
2022-09-15T11:13:26.842Z,20.71
2022-09-15T11:16:08.386Z,20.81
2022-09-15T11:18:44.514Z,20.92
2022-09-15T11:21:45.769Z,21.02
2022-09-15T11:24:36.950Z,21.12
2022-09-15T11:27:25.055Z,21.27
2022-09-15T11:30:07.483Z,21.38
2022-09-15T11:32:59.354Z,21.39
2022-09-15T11:35:46.428Z,21.39
2022-09-15T11:38:49.100Z,21.33
2022-09-15T11:41:44.676Z,21.32
2022-09-15T11:44:26.916Z,21.31
2022-09-15T11:47:27.698Z,21.33
2022-09-15T11:50:09.553Z,21.35
2022-09-15T11:53:09.464Z,21.43
2022-09-15T11:56:00.082Z,21.58
2022-09-15T11:58:47.491Z,21.67
2022-09-15T12:01:23.396Z,21.64
2022-09-15T12:04:04.537Z,21.62
2022-09-15T12:06:52.100Z,21.63
2022-09-15T12:09:21.046Z,21.58
2022-09-15T12:11:54.148Z,21.56
2022-09-15T12:14:43.893Z,21.56
2022-09-15T12:17:41.306Z,21.53
2022-09-15T12:20:46.253Z,21.54
2022-09-15T12:23:28.513Z,21.58
2022-09-15T12:26:07.781Z,21.60
2022-09-15T12:28:43.308Z,21.68
2022-09-15T12:31:27.554Z,21.79
2022-09-15T12:34:35.738Z,21.85
2022-09-15T12:37:17.804Z,21.94
2022-09-15T12:39:47.492Z,22.16
2022-09-15T12:42:27.609Z,22.42
2022-09-15T12:45:26.843Z,22.66
2022-09-15T12:48:04.812Z,22.89
2022-09-15T12:50:46.891Z,23.12
2022-09-15T12:53:31.144Z,23.36
2022-09-15T12:56:03.172Z,23.53
2022-09-15T12:58:36.313Z,23.60
2022-09-15T13:01:28.141Z,23.62
2022-09-15T13:04:07.348Z,23.70
2022-09-15T13:06:35.284Z,23.81
2022-09-15T13:09:15.720Z,23.89
2022-09-15T13:11:47.025Z,23.82
2022-09-15T13:14:37.618Z,23.85
2022-09-15T13:17:19.152Z,23.86
2022-09-15T13:19:53.082Z,23.87
2022-09-15T13:22:29.645Z,23.96
2022-09-15T13:25:15.180Z,24.04
2022-09-15T13:27:56.427Z,24.00
2022-09-15T13:30:53.325Z,23.95
2022-09-15T13:39:33.050Z,23.66
2022-09-15T13:42:31.016Z,23.61
2022-09-15T13:45:29.104Z,23.58
2022-09-15T13:48:08.079Z,23.51
2022-09-15T13:50:59.749Z,23.46
2022-09-15T13:53:36.778Z,23.47
2022-09-15T13:56:09.507Z,23.51
2022-09-15T13:59:01.799Z,23.56
2022-09-15T14:01:11.711Z,23.56
2022-09-15T14:03:50.396Z,23.58
2022-09-15T14:06:26.645Z,23.52
2022-09-15T14:08:58.454Z,23.42
2022-09-15T14:11:33.713Z,23.34
2022-09-15T14:14:02.537Z,23.25
2022-09-15T14:16:34.701Z,23.19
2022-09-15T14:19:24.446Z,23.14
2022-09-15T14:21:58.320Z,23.12
2022-09-15T14:24:29.777Z,23.11
2022-09-15T14:27:02.954Z,23.08
2022-09-15T14:29:30.547Z,23.04
2022-09-15T14:32:01.361Z,23.00
2022-09-15T14:34:33.057Z,22.96
2022-09-15T14:37:24.836Z,22.94
2022-09-15T14:39:58.302Z,22.93
2022-09-15T14:42:37.115Z,22.94
2022-09-15T14:47:44.794Z,23.05
2022-09-15T14:50:21.711Z,23.13
2022-09-15T14:52:54.335Z,23.25
2022-09-15T14:55:38.924Z,23.38
2022-09-15T14:58:17.222Z,23.46
2022-09-15T15:00:53.966Z,23.49
2022-09-15T15:03:27.101Z,23.46
2022-09-15T15:06:02.454Z,23.44
2022-09-15T15:08:39.503Z,23.45
2022-09-15T15:11:10.263Z,23.51
2022-09-15T15:13:41.993Z,23.59
2022-09-15T15:16:26.373Z,23.63
2022-09-15T15:18:58.592Z,23.64
2022-09-15T15:21:44.612Z,23.64
2022-09-15T15:24:22.126Z,23.60
2022-09-15T15:26:50.780Z,23.54
2022-09-15T15:29:43.580Z,23.49
2022-09-15T15:32:24.598Z,23.46
2022-09-15T15:35:01.408Z,23.39
2022-09-15T15:37:32.164Z,23.32
2022-09-15T15:40:07.419Z,23.24
2022-09-15T15:42:35.248Z,23.17
2022-09-15T15:45:23.103Z,23.08
2022-09-15T15:47:51.061Z,23.01
2022-09-15T15:50:25.714Z,22.90
2022-09-15T15:52:54.357Z,22.81
2022-09-15T15:55:26.214Z,22.73
2022-09-15T15:57:55.544Z,22.69
2022-09-15T16:00:31.009Z,22.64
2022-09-15T16:02:58.825Z,22.59
2022-09-15T16:05:29.112Z,22.55
2022-09-15T16:08:00.209Z,22.56
2022-09-15T16:10:32.518Z,22.56
2022-09-15T16:13:00.077Z,22.53
2022-09-15T16:15:27.860Z,22.49
2022-09-15T16:17:55.453Z,22.46
2022-09-15T16:20:24.668Z,22.43
2022-09-15T16:22:52.582Z,22.38
2022-09-15T16:25:36.736Z,22.33
2022-09-15T16:28:04.564Z,22.30
2022-09-15T16:30:33.275Z,22.23
2022-09-15T16:33:01.524Z,22.14
2022-09-15T16:35:54.640Z,22.04
2022-09-15T16:38:25.367Z,21.97
2022-09-15T16:40:53.495Z,21.89
2022-09-15T16:43:22.434Z,21.82
2022-09-15T16:45:51.583Z,21.73
2022-09-15T16:48:19.586Z,21.66
2022-09-15T16:51:16.875Z,21.56
2022-09-15T16:53:22.082Z,21.48
2022-09-15T16:55:52.694Z,21.40
2022-09-15T16:58:21.616Z,21.34
2022-09-15T17:00:52.389Z,21.27
2022-09-15T17:03:24.982Z,21.23
2022-09-15T17:05:55.782Z,21.23
2022-09-15T17:08:28.727Z,21.23
2022-09-15T17:11:02.441Z,21.25
2022-09-15T17:13:31.812Z,21.26
2022-09-15T17:16:01.389Z,21.24
2022-09-15T17:18:30.117Z,21.25
2022-09-15T17:20:58.539Z,21.27
2022-09-15T17:23:34.222Z,21.31
2022-09-15T17:26:06.148Z,21.31
2022-09-15T17:28:36.157Z,21.28
2022-09-15T17:31:08.354Z,21.27
2022-09-15T17:33:35.987Z,21.26
2022-09-15T17:36:04.529Z,21.20
2022-09-15T17:38:32.286Z,21.16
2022-09-15T17:40:59.943Z,21.12
2022-09-15T17:43:30.697Z,21.07
2022-09-15T17:45:58.586Z,21.02
2022-09-15T17:48:26.143Z,20.94
2022-09-15T17:50:53.893Z,20.89
2022-09-15T17:53:26.176Z,20.82
2022-09-15T17:55:55.591Z,20.74
2022-09-15T17:58:26.301Z,20.66
2022-09-15T18:00:54.206Z,20.58
2022-09-15T18:03:33.692Z,20.53
2022-09-15T18:06:06.015Z,20.50
2022-09-15T18:08:37.019Z,20.46
2022-09-15T18:11:06.595Z,20.45
2022-09-15T18:13:34.628Z,20.45
2022-09-15T18:16:09.473Z,20.47
2022-09-15T18:18:38.387Z,20.50
2022-09-15T18:21:13.694Z,20.52
2022-09-15T18:23:41.889Z,20.54
2022-09-15T18:26:09.508Z,20.59
2022-09-15T18:28:37.304Z,20.60
2022-09-15T18:31:05.414Z,20.60
2022-09-15T18:33:33.249Z,20.58
2022-09-15T18:36:00.833Z,20.59
2022-09-15T18:38:28.636Z,20.59
2022-09-15T18:40:57.170Z,20.56
2022-09-15T18:43:27.038Z,20.55
2022-09-15T18:45:59.423Z,20.54
2022-09-15T18:48:27.902Z,20.51
2022-09-15T18:50:55.862Z,20.48
2022-09-15T18:53:24.265Z,20.40
2022-09-15T18:55:52.024Z,20.37
2022-09-15T18:58:19.799Z,20.32
2022-09-15T19:00:48.451Z,20.27
2022-09-15T19:03:15.928Z,20.24
2022-09-15T19:05:45.200Z,20.19
2022-09-15T19:08:13.024Z,20.14
2022-09-15T19:10:42.402Z,20.07
2022-09-15T19:13:15.172Z,20.01
2022-09-15T19:15:43.367Z,19.97
2022-09-15T19:18:11.484Z,19.91
2022-09-15T19:20:39.842Z,19.88
2022-09-15T19:23:07.459Z,19.86
2022-09-15T19:25:35.318Z,19.85
2022-09-15T19:28:03.194Z,19.87
2022-09-15T19:30:30.661Z,19.87
2022-09-15T19:32:58.033Z,19.90
2022-09-15T19:35:25.684Z,19.93
2022-09-15T19:37:53.415Z,19.95
2022-09-15T19:40:23.154Z,19.98
2022-09-15T19:42:50.771Z,19.97
2022-09-15T19:45:18.763Z,19.95
2022-09-15T19:47:46.289Z,19.93
2022-09-15T19:50:13.906Z,19.90
2022-09-15T19:52:41.686Z,19.88
2022-09-15T19:55:11.571Z,19.87
2022-09-15T19:57:41.239Z,19.84
2022-09-15T20:00:12.369Z,19.79
2022-09-15T20:02:40.190Z,19.74
2022-09-15T20:05:08.675Z,19.71
2022-09-15T20:07:37.160Z,19.68
2022-09-15T20:10:05.949Z,19.68
2022-09-15T20:12:33.675Z,19.68
2022-09-15T20:15:01.303Z,19.66
2022-09-15T20:17:28.951Z,19.65
2022-09-15T20:19:56.509Z,19.63
2022-09-15T20:22:24.336Z,19.62
2022-09-15T20:24:51.671Z,19.63
2022-09-15T20:27:19.282Z,19.65
2022-09-15T20:29:47.006Z,19.66
2022-09-15T20:32:14.789Z,19.65
2022-09-15T20:34:42.491Z,19.62
2022-09-15T20:37:10.142Z,19.61
2022-09-15T20:39:37.829Z,19.60
2022-09-15T20:42:05.539Z,19.53
2022-09-15T20:44:33.043Z,19.50
2022-09-15T20:47:00.566Z,19.45
2022-09-15T20:49:28.183Z,19.45
2022-09-15T20:51:55.532Z,19.44
2022-09-15T20:54:22.825Z,19.43
2022-09-15T20:56:50.256Z,19.44
2022-09-15T20:59:17.786Z,19.40
2022-09-15T21:01:46.237Z,19.37
2022-09-15T21:04:14.831Z,19.36
2022-09-15T21:06:42.453Z,19.39
2022-09-15T21:09:10.240Z,19.42
2022-09-15T21:11:38.848Z,19.44
2022-09-15T21:14:06.229Z,19.47
2022-09-15T21:16:34.286Z,19.49
2022-09-15T21:19:01.898Z,19.50
2022-09-15T21:21:32.549Z,19.54
2022-09-15T21:24:06.934Z,19.58
2022-09-15T21:26:57.067Z,19.60
2022-09-15T21:29:25.880Z,19.53
2022-09-15T21:31:55.332Z,19.49
2022-09-15T21:34:23.616Z,19.42
2022-09-15T21:36:52.955Z,19.42
2022-09-15T21:39:20.910Z,19.41
2022-09-15T21:41:49.258Z,19.41
2022-09-15T21:44:17.047Z,19.40
2022-09-15T21:46:46.734Z,19.37
2022-09-15T21:49:16.804Z,19.34
2022-09-15T21:51:44.430Z,19.29
2022-09-15T21:54:11.974Z,19.23
2022-09-15T21:56:39.760Z,19.20
2022-09-15T21:59:10.173Z,19.21
2022-09-15T22:01:39.272Z,19.21
2022-09-15T22:04:10.118Z,19.19
2022-09-15T22:06:40.885Z,19.19
2022-09-15T22:09:14.958Z,19.24
2022-09-15T22:11:42.691Z,19.29
2022-09-15T22:14:11.417Z,19.35
2022-09-15T22:16:41.661Z,19.40
2022-09-15T22:19:11.424Z,19.41
2022-09-15T22:21:41.260Z,19.43
2022-09-15T22:24:12.285Z,19.46
2022-09-15T22:26:42.006Z,19.50
2022-09-15T22:29:09.911Z,19.52
2022-09-15T22:31:37.892Z,19.52
2022-09-15T22:34:05.534Z,19.51
2022-09-15T22:36:33.802Z,19.49
2022-09-15T22:39:04.544Z,19.44
2022-09-15T22:41:36.250Z,19.40
2022-09-15T22:44:05.512Z,19.36
2022-09-15T22:46:33.252Z,19.29
2022-09-15T22:49:01.154Z,19.23
2022-09-15T22:51:29.419Z,19.19
2022-09-15T22:53:57.848Z,19.15
2022-09-15T22:56:26.423Z,19.12
2022-09-15T22:58:56.273Z,19.08
2022-09-15T23:01:28.088Z,19.08
2022-09-15T23:03:59.820Z,19.08
2022-09-15T23:06:33.361Z,19.07
2022-09-15T23:09:06.075Z,19.11
2022-09-15T23:11:35.381Z,19.15
2022-09-15T23:14:03.187Z,19.16
2022-09-15T23:16:31.691Z,19.13
2022-09-15T23:18:59.788Z,19.10
2022-09-15T23:21:27.994Z,19.08
2022-09-15T23:23:56.014Z,19.04
2022-09-15T23:26:24.764Z,18.98
2022-09-15T23:28:53.085Z,18.92
2022-09-15T23:31:21.496Z,18.86
2022-09-15T23:33:49.429Z,18.83
2022-09-15T23:36:21.376Z,18.79
2022-09-15T23:38:49.637Z,18.75
2022-09-15T23:41:18.358Z,18.70
2022-09-15T23:43:47.141Z,18.67
2022-09-15T23:46:16.808Z,18.63
2022-09-15T23:48:44.990Z,18.60
2022-09-15T23:51:12.936Z,18.62
2022-09-15T23:53:40.610Z,18.64
2022-09-15T23:56:08.339Z,18.63
2022-09-15T23:58:36.206Z,18.65
